首页
METAR-TAF:

METAR-TAF

机场 :

William H. Morse State Airport

本宁顿, 佛蒙特州, 美国

纬度: 42-53-24N, 经度: 073-14-47W, 海拔: 252米

当前天气观测

该预报发布于42分钟前的23:54 UTC
静风
温度 0°C
湿度 80%
气压 1015 hPa
能見度: 16.1公里
少量云层高于3100英尺
阴天层高于6000英尺

METAR: KDDH 112354Z AUTO 00000KT 10SM FEW031 OVC060 00/M03 A2997 RMK AO2 SLP155 T00001028 10022 21006 56025

时间: 19:36 (00:36 UTC)


TAF: 丢失

超过4000个机场的气象观测和天气预报(METAR&TAF报告)。

可查询的气象台以黄色和红色小点在地图上表示。

将鼠标移到小点上方,可查看气象台名称。

然后点击查看天气观测和预报。

如需切换地图:点击带黑十字的绿色按钮放大地图;点击带横线的绿色按钮缩小地图;或者点击绿色箭头查看邻近地区的地图。


METAR-TAF: